Ames, New York
Current Conditions -  °F | °C
As of 10:35 PM on Friday 24 Oct 2014 (Local Time) from KNY0 Reporting Station
Clear Clear  
Wind Chill: 39°   Ceiling: Unl
Heat Index: 44°   Visibility: 10mi
Dew Point: 40°   Wind: 8mph
Humidity: 85%   Direction: 270°W
Pressure: 29.88"   Gusts: NA
Location:  42.8548°N, 74.5942°W
Report Text: KNY0 250235Z AUTO 27007KT 10SM CLR 07/04 A2988 RMK AO2 T00660043
Loading
Personal Weather Stations






























Interactive Weather Map
Tropical Storm Tracking
New forecast layout! Learn more

10-Day Weather Forecast

Advertisements
Track Severe Weather on mobile